Time;durP1;ratioP1;P1;durP2;ratioP2;P2;SDS_P1;SDS_P2;PMS_P1;PMS_P2;Temp;Humidity;BMP_temperature;BMP_pressure;BME280_temperature;BME280_humidity;BME280_pressure;Samples;Min_cycle;Max_cycle;Signal;HPM_P1;HPM_P2
2023/05/22 00:00:27;;;;;;;;;18.75;16.75;;;;;;;;5033175;28;9389;-89
2023/05/22 00:02:56;;;;;;;;;16.50;15.00;;;;;;;;5038535;28;9545;-87
2023/05/22 00:05:23;;;;;;;;;15.50;14.25;;;;;;;;5038270;28;9679;-87
2023/05/22 00:07:50;;;;;;;;;16.00;14.25;;;;;;;;5047129;28;9556;-87
2023/05/22 00:10:17;;;;;;;;;11.25;10.25;;;;;;;;5043129;28;9490;-88
2023/05/22 00:12:45;;;;;;;;;14.75;14.75;;;;;;;;5041752;28;9412;-87
2023/05/22 00:15:16;;;;;;;;;15.50;14.25;;;;;;;;5049008;28;9798;-87
2023/05/22 00:17:46;;;;;;;;;15.00;15.00;;;;;;;;5048255;28;9799;-88
2023/05/22 00:20:16;;;;;;;;;19.00;17.25;;;;;;;;5051460;28;9610;-88
2023/05/22 00:22:43;;;;;;;;;22.75;19.50;;;;;;;;5042652;28;9634;-86
2023/05/22 00:25:13;;;;;;;;;17.50;16.25;;;;;;;;5039963;28;9830;-86
2023/05/22 00:27:44;;;;;;;;;14.25;14.25;;;;;;;;5053864;28;9912;-87
2023/05/22 00:30:13;;;;;;;;;19.25;18.25;;;;;;;;5044717;28;9723;-86
2023/05/22 00:32:46;;;;;;;;;16.75;14.25;;;;;;;;5041385;28;9667;-89
2023/05/22 00:35:16;;;;;;;;;17.25;17.25;;;;;;;;5039756;28;9783;-89
2023/05/22 00:37:44;;;;;;;;;18.50;15.50;;;;;;;;5044353;28;9852;-88
2023/05/22 00:40:14;;;;;;;;;20.25;17.75;;;;;;;;5045874;28;9563;-87
2023/05/22 00:42:42;;;;;;;;;16.00;16.00;;;;;;;;5043420;28;9768;-88
2023/05/22 00:45:10;;;;;;;;;17.50;17.50;;;;;;;;5038239;28;9723;-89
2023/05/22 00:47:39;;;;;;;;;13.50;13.50;;;;;;;;5043153;28;9792;-89
2023/05/22 00:50:08;;;;;;;;;15.50;14.75;;;;;;;;5057153;28;9922;-91
2023/05/22 00:52:37;;;;;;;;;16.50;15.50;;;;;;;;5053905;28;9802;-92
2023/05/22 00:55:06;;;;;;;;;16.25;16.00;;;;;;;;5056728;28;9784;-93
2023/05/22 00:57:34;;;;;;;;;20.75;17.25;;;;;;;;5057219;28;9716;-92
2023/05/22 01:00:02;;;;;;;;;21.00;18.50;;;;;;;;5034546;28;9851;-92
2023/05/22 01:02:31;;;;;;;;;13.75;13.25;;;;;;;;5039888;28;9686;-92
2023/05/22 01:05:02;;;;;;;;;16.50;13.75;;;;;;;;5045071;28;9556;-90
2023/05/22 01:07:30;;;;;;;;;18.50;16.00;;;;;;;;5037272;28;9620;-88
2023/05/22 01:09:58;;;;;;;;;20.50;17.25;;;;;;;;5036004;28;9783;-90
2023/05/22 01:12:31;;;;;;;;;14.00;13.50;;;;;;;;5045227;28;9814;-90
2023/05/22 01:15:06;;;;;;;;;17.00;16.50;;;;;;;;5056533;28;9792;-91
2023/05/22 01:17:45;;;;;;;;;18.50;18.00;;;;;;;;5039222;28;9644;-89
2023/05/22 01:20:24;;;;;;;;;14.00;14.00;;;;;;;;5046052;28;9851;-89
2023/05/22 01:23:22;;;;;;;;;17.00;15.50;;;;;;;;5048144;28;9672;-89
2023/05/22 01:26:02;;;;;;;;;17.00;17.00;;;;;;;;5055575;28;9559;-90
2023/05/22 01:28:42;;;;;;;;;18.50;16.00;;;;;;;;5048041;28;9661;-90
2023/05/22 01:31:13;;;;;;;;;19.50;17.00;;;;;;;;5047149;28;9493;-90
2023/05/22 01:33:46;;;;;;;;;15.25;15.25;;;;;;;;5057036;28;9802;-90
2023/05/22 01:36:19;;;;;;;;;16.75;16.75;;;;;;;;5038933;28;9717;-89
2023/05/22 01:38:46;;;;;;;;;15.25;14.25;;;;;;;;5047587;28;9670;-90
2023/05/22 01:41:17;;;;;;;;;21.25;20.00;;;;;;;;5031188;28;9629;-90
2023/05/22 01:43:46;;;;;;;;;16.00;16.00;;;;;;;;5049528;28;9464;-90
2023/05/22 01:46:14;;;;;;;;;22.00;16.00;;;;;;;;5052996;28;9478;-88
2023/05/22 01:48:44;;;;;;;;;16.25;16.25;;;;;;;;5060257;28;9554;-90
2023/05/22 01:51:15;;;;;;;;;15.25;15.25;;;;;;;;5043732;28;9536;-89
2023/05/22 01:53:48;;;;;;;;;17.00;17.00;;;;;;;;5059184;28;9445;-89
2023/05/22 01:56:17;;;;;;;;;12.00;12.00;;;;;;;;5037965;28;9404;-90
2023/05/22 01:58:52;;;;;;;;;21.00;16.33;;;;;;;;5050967;28;9254;-85
2023/05/22 02:01:23;;;;;;;;;18.00;18.00;;;;;;;;5048886;28;9194;-87
2023/05/22 02:03:55;;;;;;;;;20.00;17.00;;;;;;;;5064457;28;9389;-86
2023/05/22 02:06:23;;;;;;;;;17.00;14.33;;;;;;;;5068248;28;9412;-86
2023/05/22 02:08:51;;;;;;;;;17.00;14.00;;;;;;;;5063451;28;9347;-88
2023/05/22 02:11:20;;;;;;;;;15.33;13.00;;;;;;;;5062619;28;9323;-86
2023/05/22 02:13:48;;;;;;;;;14.67;14.67;;;;;;;;5042899;28;9498;-88
2023/05/22 02:16:15;;;;;;;;;13.67;13.67;;;;;;;;5063735;28;9172;-87
2023/05/22 02:18:47;;;;;;;;;17.33;14.00;;;;;;;;5070453;28;9320;-87
2023/05/22 02:21:14;;;;;;;;;14.67;14.67;;;;;;;;5052462;28;9324;-88
2023/05/22 02:23:42;;;;;;;;;15.33;15.33;;;;;;;;5050700;28;9332;-88
2023/05/22 02:26:10;;;;;;;;;15.67;14.33;;;;;;;;5046589;28;9320;-88
2023/05/22 02:28:37;;;;;;;;;13.00;13.00;;;;;;;;5052033;28;9546;-90
2023/05/22 02:31:04;;;;;;;;;13.67;13.33;;;;;;;;5048362;28;9368;-91
2023/05/22 02:33:32;;;;;;;;;15.00;15.00;;;;;;;;5048686;28;9364;-90
2023/05/22 02:36:00;;;;;;;;;13.67;13.67;;;;;;;;5049023;28;9417;-90
2023/05/22 02:38:28;;;;;;;;;14.00;12.67;;;;;;;;5033938;28;9360;-88
2023/05/22 02:40:55;;;;;;;;;17.50;16.00;;;;;;;;5054751;28;9338;-90
2023/05/22 02:43:22;;;;;;;;;15.25;12.75;;;;;;;;5051550;28;9397;-91
2023/05/22 02:45:50;;;;;;;;;21.75;16.25;;;;;;;;5042044;28;9464;-90
2023/05/22 02:48:20;;;;;;;;;14.00;12.33;;;;;;;;5057771;28;9527;-92
2023/05/22 02:50:47;;;;;;;;;14.67;13.33;;;;;;;;5042434;28;9273;-91
2023/05/22 02:53:16;;;;;;;;;14.67;13.00;;;;;;;;5041721;28;9345;-89
2023/05/22 02:55:44;;;;;;;;;12.00;12.00;;;;;;;;5046386;28;9490;-90
2023/05/22 02:58:16;;;;;;;;;11.33;11.33;;;;;;;;5057584;28;9332;-88
2023/05/22 03:00:48;;;;;;;;;17.67;16.00;;;;;;;;5036454;28;9188;-89
2023/05/22 03:03:17;;;;;;;;;14.33;13.33;;;;;;;;5052544;28;9262;-90
2023/05/22 03:05:46;;;;;;;;;17.00;15.33;;;;;;;;5054128;28;9431;-90
2023/05/22 03:08:18;;;;;;;;;15.67;14.33;;;;;;;;5053942;28;9410;-89
2023/05/22 03:10:45;;;;;;;;;15.67;13.67;;;;;;;;5050420;28;9461;-89
2023/05/22 03:13:12;;;;;;;;;16.67;13.67;;;;;;;;5044767;28;9413;-88
2023/05/22 03:15:40;;;;;;;;;19.00;14.75;;;;;;;;5042226;28;9496;-89
2023/05/22 03:18:07;;;;;;;;;15.33;13.67;;;;;;;;5037418;28;9488;-89
2023/05/22 03:20:34;;;;;;;;;15.00;13.33;;;;;;;;5051404;28;9409;-88
2023/05/22 03:23:02;;;;;;;;;17.00;15.00;;;;;;;;5045906;28;10079;-88
2023/05/22 03:25:31;;;;;;;;;15.75;15.75;;;;;;;;5046076;28;9511;-88
2023/05/22 03:27:58;;;;;;;;;16.33;15.00;;;;;;;;5049545;28;9487;-89
2023/05/22 03:30:26;;;;;;;;;14.25;14.25;;;;;;;;5032719;28;9351;-89
2023/05/22 03:32:53;;;;;;;;;15.33;14.00;;;;;;;;5045473;28;9675;-87
2023/05/22 03:35:20;;;;;;;;;14.75;14.00;;;;;;;;5049467;28;9416;-86
2023/05/22 03:37:48;;;;;;;;;20.33;18.00;;;;;;;;5039486;28;9436;-89
2023/05/22 03:40:17;;;;;;;;;11.67;10.67;;;;;;;;5040017;28;9338;-89
2023/05/22 03:42:48;;;;;;;;;15.33;15.33;;;;;;;;5041177;28;9240;-91
2023/05/22 03:45:18;;;;;;;;;13.00;13.00;;;;;;;;5040448;28;9262;-90
2023/05/22 03:47:46;;;;;;;;;18.33;17.00;;;;;;;;5049151;28;9384;-89
2023/05/22 03:50:16;;;;;;;;;12.33;12.33;;;;;;;;5046539;28;9340;-90
2023/05/22 03:52:48;;;;;;;;;17.67;15.67;;;;;;;;5050034;28;9252;-90
2023/05/22 03:55:18;;;;;;;;;14.00;12.67;;;;;;;;5050884;28;9313;-88
2023/05/22 03:57:47;;;;;;;;;13.00;11.67;;;;;;;;5045969;28;9381;-88
2023/05/22 04:00:18;;;;;;;;;18.33;13.67;;;;;;;;5043115;28;9352;-88
2023/05/22 04:02:49;;;;;;;;;20.67;16.00;;;;;;;;5045255;28;9301;-88
2023/05/22 04:05:18;;;;;;;;;15.33;15.33;;;;;;;;5047082;28;9352;-88
2023/05/22 04:07:46;;;;;;;;;11.00;11.00;;;;;;;;5049318;28;9255;-89
2023/05/22 04:10:14;;;;;;;;;13.00;13.00;;;;;;;;5053622;28;9421;-86
2023/05/22 04:12:41;;;;;;;;;14.67;13.67;;;;;;;;5042159;28;9451;-89
2023/05/22 04:15:11;;;;;;;;;13.00;13.00;;;;;;;;5039255;28;9391;-88
2023/05/22 04:17:40;;;;;;;;;12.33;12.33;;;;;;;;5040088;28;9426;-76
2023/05/22 04:20:09;;;;;;;;;12.67;12.67;;;;;;;;5041379;28;9620;-75
2023/05/22 04:22:38;;;;;;;;;15.33;13.33;;;;;;;;5038323;28;9400;-77
2023/05/22 04:25:06;;;;;;;;;12.33;12.33;;;;;;;;5052234;28;9334;-72
2023/05/22 04:27:34;;;;;;;;;13.33;12.33;;;;;;;;5049173;28;9357;-74
2023/05/22 04:30:02;;;;;;;;;13.00;13.00;;;;;;;;5048553;28;9275;-75
2023/05/22 04:32:31;;;;;;;;;15.00;13.00;;;;;;;;5049617;28;9283;-74
2023/05/22 04:34:59;;;;;;;;;14.00;14.00;;;;;;;;5049672;28;9244;-73
2023/05/22 04:37:27;;;;;;;;;16.33;13.00;;;;;;;;5045898;28;9334;-77
2023/05/22 04:39:57;;;;;;;;;13.67;13.67;;;;;;;;5050270;28;9189;-77
2023/05/22 04:42:27;;;;;;;;;15.33;14.00;;;;;;;;5050112;28;9330;-79
2023/05/22 04:44:56;;;;;;;;;18.33;17.00;;;;;;;;5048398;28;9184;-82
2023/05/22 04:47:24;;;;;;;;;14.67;14.67;;;;;;;;5042375;28;9318;-80
2023/05/22 04:49:58;;;;;;;;;15.67;15.67;;;;;;;;5043729;28;9493;-79
2023/05/22 04:52:28;;;;;;;;;18.33;15.67;;;;;;;;5040839;28;9334;-74
2023/05/22 04:54:56;;;;;;;;;18.00;13.67;;;;;;;;5048181;28;9332;-81
2023/05/22 04:57:26;;;;;;;;;15.67;14.00;;;;;;;;5050607;28;9279;-78
2023/05/22 04:59:55;;;;;;;;;20.33;18.33;;;;;;;;5062346;28;9263;-82
2023/05/22 05:02:22;;;;;;;;;14.33;13.33;;;;;;;;5053455;28;9212;-82
2023/05/22 05:04:51;;;;;;;;;14.67;13.00;;;;;;;;5039361;28;9299;-80
2023/05/22 05:07:20;;;;;;;;;15.00;13.33;;;;;;;;5049889;28;9255;-79
2023/05/22 05:09:48;;;;;;;;;15.00;15.00;;;;;;;;5059830;28;9316;-81
2023/05/22 05:12:16;;;;;;;;;13.67;13.67;;;;;;;;5059559;28;9384;-78
2023/05/22 05:14:44;;;;;;;;;18.50;17.00;;;;;;;;5050261;28;9254;-79
2023/05/22 05:17:11;;;;;;;;;13.67;13.67;;;;;;;;5048189;28;9291;-81
2023/05/22 05:19:39;;;;;;;;;18.00;16.67;;;;;;;;5042646;28;10004;-82
2023/05/22 05:22:06;;;;;;;;;16.33;14.67;;;;;;;;5056291;28;9407;-77
2023/05/22 05:24:34;;;;;;;;;17.67;16.33;;;;;;;;5034424;28;9475;-80
2023/05/22 05:27:02;;;;;;;;;18.33;17.00;;;;;;;;5038821;28;9315;-83
2023/05/22 05:29:29;;;;;;;;;14.00;12.67;;;;;;;;5042384;28;9384;-79
2023/05/22 05:31:57;;;;;;;;;17.33;14.33;;;;;;;;5037487;28;9430;-81
2023/05/22 05:34:24;;;;;;;;;15.00;13.67;;;;;;;;5045984;28;9365;-81
2023/05/22 05:36:52;;;;;;;;;15.00;14.00;;;;;;;;5035949;28;9344;-83
2023/05/22 05:39:19;;;;;;;;;18.00;15.00;;;;;;;;5038087;28;9308;-82
2023/05/22 05:41:48;;;;;;;;;15.67;15.67;;;;;;;;5051684;28;10059;-85
2023/05/22 05:44:15;;;;;;;;;9.67;9.33;;;;;;;;5050431;28;9255;-84
2023/05/22 05:46:42;;;;;;;;;18.00;15.00;;;;;;;;5052786;28;9212;-82
2023/05/22 05:49:10;;;;;;;;;14.00;14.00;;;;;;;;5050597;28;9270;-87
2023/05/22 05:51:38;;;;;;;;;20.67;17.33;;;;;;;;5051356;28;9327;-79
2023/05/22 05:54:05;;;;;;;;;12.00;12.00;;;;;;;;5039253;28;9522;-80
2023/05/22 05:56:33;;;;;;;;;9.00;9.00;;;;;;;;5048888;28;9264;-78
2023/05/22 05:59:01;;;;;;;;;16.00;16.00;;;;;;;;5029540;28;9274;-79
2023/05/22 06:01:31;;;;;;;;;16.00;16.00;;;;;;;;5043044;28;9384;-76
2023/05/22 06:04:01;;;;;;;;;13.33;12.33;;;;;;;;5039147;28;9189;-79
2023/05/22 06:06:30;;;;;;;;;12.67;12.67;;;;;;;;5048252;28;9181;-80
2023/05/22 06:08:57;;;;;;;;;12.67;11.00;;;;;;;;5049497;28;9091;-77
2023/05/22 06:11:24;;;;;;;;;15.00;15.00;;;;;;;;5048356;28;9097;-80
2023/05/22 06:13:51;;;;;;;;;19.67;16.00;;;;;;;;5049125;28;9095;-78
2023/05/22 06:16:20;;;;;;;;;21.33;19.67;;;;;;;;5048938;28;9091;-78
2023/05/22 06:18:48;;;;;;;;;17.00;15.33;;;;;;;;5049001;28;9251;-77
2023/05/22 06:21:16;;;;;;;;;15.67;14.33;;;;;;;;5049519;28;9180;-78
2023/05/22 06:23:44;;;;;;;;;21.00;16.33;;;;;;;;5049000;28;9086;-79
2023/05/22 06:26:11;;;;;;;;;18.33;16.33;;;;;;;;5047818;28;8967;-82
2023/05/22 06:28:38;;;;;;;;;21.00;18.00;;;;;;;;5047498;28;9046;-76
2023/05/22 06:31:05;;;;;;;;;16.33;14.33;;;;;;;;5046678;28;9790;-82
2023/05/22 06:33:35;;;;;;;;;14.75;13.25;;;;;;;;5048039;28;9127;-77
2023/05/22 06:36:02;;;;;;;;;16.75;14.25;;;;;;;;5060266;28;8869;-79
2023/05/22 06:38:30;;;;;;;;;15.67;15.00;;;;;;;;5060558;28;8854;-76
2023/05/22 06:40:57;;;;;;;;;19.33;16.00;;;;;;;;5066906;28;9081;-79
2023/05/22 06:43:24;;;;;;;;;14.00;14.00;;;;;;;;5066721;28;9087;-79
2023/05/22 06:45:51;;;;;;;;;14.67;13.00;;;;;;;;5046123;28;9060;-76
2023/05/22 06:48:19;;;;;;;;;16.00;16.00;;;;;;;;5047710;28;8955;-77
2023/05/22 06:50:47;;;;;;;;;17.00;14.67;;;;;;;;5060418;28;9172;-77
2023/05/22 06:53:15;;;;;;;;;17.00;17.00;;;;;;;;5047393;28;9174;-76
2023/05/22 06:55:42;;;;;;;;;19.33;18.67;;;;;;;;5048070;28;9101;-76
2023/05/22 06:58:09;;;;;;;;;14.00;12.00;;;;;;;;5059789;28;9242;-75
2023/05/22 07:00:36;;;;;;;;;19.33;18.00;;;;;;;;5054049;28;8871;-79
2023/05/22 07:03:05;;;;;;;;;16.00;16.00;;;;;;;;5060904;28;8992;-80
2023/05/22 07:05:32;;;;;;;;;17.75;15.75;;;;;;;;5047582;28;8842;-78
2023/05/22 07:08:01;;;;;;;;;15.00;15.00;;;;;;;;5047715;28;8851;-79
2023/05/22 07:10:28;;;;;;;;;19.00;19.00;;;;;;;;5054778;28;8850;-81
2023/05/22 07:12:55;;;;;;;;;18.50;18.00;;;;;;;;5064181;28;8985;-81
2023/05/22 07:15:22;;;;;;;;;22.50;19.50;;;;;;;;5065995;28;8843;-81
2023/05/22 07:17:50;;;;;;;;;16.00;16.00;;;;;;;;5052504;28;8854;-74
2023/05/22 07:20:17;;;;;;;;;17.00;17.00;;;;;;;;5065860;28;8874;-81
2023/05/22 07:22:44;;;;;;;;;16.75;16.00;;;;;;;;5051722;28;8891;-83
2023/05/22 07:25:12;;;;;;;;;23.75;23.00;;;;;;;;5067587;28;8859;-79
2023/05/22 07:27:40;;;;;;;;;23.00;21.50;;;;;;;;5063446;28;8853;-87
2023/05/22 07:30:08;;;;;;;;;20.75;18.75;;;;;;;;5048239;28;8944;-85
2023/05/22 07:32:35;;;;;;;;;21.25;19.75;;;;;;;;5049219;28;8880;-80
2023/05/22 07:35:03;;;;;;;;;23.00;20.00;;;;;;;;5051344;28;8888;-83
2023/05/22 07:37:30;;;;;;;;;23.75;23.25;;;;;;;;5049141;28;8849;-82
2023/05/22 07:39:57;;;;;;;;;16.50;15.25;;;;;;;;5047747;28;8873;-84
2023/05/22 07:42:26;;;;;;;;;20.25;20.25;;;;;;;;5054903;28;8891;-76
2023/05/22 07:44:54;;;;;;;;;22.00;22.00;;;;;;;;5058617;28;8873;-89
2023/05/22 07:47:21;;;;;;;;;18.25;17.00;;;;;;;;5052024;28;8913;-87
2023/05/22 07:49:48;;;;;;;;;21.75;17.50;;;;;;;;5059929;28;8893;-85
2023/05/22 07:52:15;;;;;;;;;18.75;17.50;;;;;;;;5053127;28;8890;-85
2023/05/22 07:54:42;;;;;;;;;21.00;21.00;;;;;;;;5048784;28;8869;-82
2023/05/22 07:57:11;;;;;;;;;24.75;24.75;;;;;;;;5056767;28;8865;-80
2023/05/22 07:59:42;;;;;;;;;24.75;22.00;;;;;;;;5056045;28;8934;-77
2023/05/22 08:02:09;;;;;;;;;21.00;19.25;;;;;;;;5060955;28;8875;-79
2023/05/22 08:04:36;;;;;;;;;19.75;19.75;;;;;;;;5055854;28;8854;-78
2023/05/22 08:07:04;;;;;;;;;28.25;21.75;;;;;;;;5060362;28;8881;-79
2023/05/22 08:09:31;;;;;;;;;23.75;22.75;;;;;;;;5050990;28;8867;-78
2023/05/22 08:11:58;;;;;;;;;20.75;18.75;;;;;;;;5066001;28;9626;-77
2023/05/22 08:14:26;;;;;;;;;23.50;23.50;;;;;;;;5050814;28;8874;-83
2023/05/22 08:16:55;;;;;;;;;21.00;21.00;;;;;;;;5050887;28;8851;-80
2023/05/22 08:19:23;;;;;;;;;24.50;21.50;;;;;;;;5046794;28;8865;-78
2023/05/22 08:21:51;;;;;;;;;25.00;23.00;;;;;;;;5041623;28;8889;-79
2023/05/22 08:24:19;;;;;;;;;25.25;23.75;;;;;;;;5050868;28;8845;-79
2023/05/22 08:26:46;;;;;;;;;22.50;21.00;;;;;;;;5050588;28;8833;-80
2023/05/22 08:29:13;;;;;;;;;28.00;23.25;;;;;;;;5058579;28;8852;-79
2023/05/22 08:31:40;;;;;;;;;19.50;19.50;;;;;;;;5050398;28;8805;-80
2023/05/22 08:34:09;;;;;;;;;21.25;21.00;;;;;;;;5065100;28;8874;-82
2023/05/22 08:36:37;;;;;;;;;25.00;25.00;;;;;;;;5050544;28;8845;-77
2023/05/22 08:39:06;;;;;;;;;22.25;22.00;;;;;;;;5062251;28;9608;-80
2023/05/22 08:41:33;;;;;;;;;23.00;19.75;;;;;;;;5061392;28;8843;-78
2023/05/22 08:44:00;;;;;;;;;22.25;18.25;;;;;;;;5063292;28;8891;-84
2023/05/22 08:46:29;;;;;;;;;25.50;21.75;;;;;;;;5055841;28;8878;-81
2023/05/22 08:48:57;;;;;;;;;25.00;23.25;;;;;;;;5044702;28;8844;-85
2023/05/22 08:51:30;;;;;;;;;23.00;23.00;;;;;;;;5055407;28;9030;-79
2023/05/22 08:53:57;;;;;;;;;29.75;24.00;;;;;;;;5050001;28;8857;-86
2023/05/22 08:56:25;;;;;;;;;22.00;21.50;;;;;;;;5047442;28;8877;-81
2023/05/22 08:58:52;;;;;;;;;24.75;22.00;;;;;;;;5052041;28;8855;-83
2023/05/22 09:01:20;;;;;;;;;25.00;21.75;;;;;;;;5055811;28;8816;-81
2023/05/22 09:03:49;;;;;;;;;19.25;19.25;;;;;;;;5051749;28;8858;-81
2023/05/22 09:06:17;;;;;;;;;24.00;24.00;;;;;;;;5051303;28;8892;-82
2023/05/22 09:08:46;;;;;;;;;25.25;24.50;;;;;;;;5050484;28;8873;-85
2023/05/22 09:11:13;;;;;;;;;24.75;24.75;;;;;;;;5056749;28;8867;-82
2023/05/22 09:13:40;;;;;;;;;24.00;24.00;;;;;;;;5046711;28;8874;-85
2023/05/22 09:16:09;;;;;;;;;26.50;21.75;;;;;;;;5057467;28;8885;-86
2023/05/22 09:18:37;;;;;;;;;27.75;27.75;;;;;;;;5053996;28;8875;-86
2023/05/22 09:21:05;;;;;;;;;22.25;22.25;;;;;;;;5052307;28;8984;-85
2023/05/22 09:23:32;;;;;;;;;30.25;26.50;;;;;;;;5055331;28;8854;-84
2023/05/22 09:26:02;;;;;;;;;26.00;22.75;;;;;;;;5045740;28;8832;-85
2023/05/22 09:28:34;;;;;;;;;29.25;26.00;;;;;;;;5036764;28;8867;-84
2023/05/22 09:31:02;;;;;;;;;20.75;20.25;;;;;;;;5051659;28;9570;-81
2023/05/22 09:33:31;;;;;;;;;25.50;25.50;;;;;;;;5055390;28;8859;-83
2023/05/22 09:35:58;;;;;;;;;34.25;26.75;;;;;;;;5043545;28;8843;-81
2023/05/22 09:38:28;;;;;;;;;31.50;30.50;;;;;;;;5054520;28;9620;-83
2023/05/22 09:40:55;;;;;;;;;29.00;29.00;;;;;;;;5052998;28;8865;-76
2023/05/22 09:43:25;;;;;;;;;35.25;32.75;;;;;;;;5049108;28;8834;-79
2023/05/22 09:45:57;;;;;;;;;35.25;32.50;;;;;;;;5054796;28;8919;-77
2023/05/22 09:48:25;;;;;;;;;30.00;29.75;;;;;;;;5049005;28;8869;-83
2023/05/22 09:50:54;;;;;;;;;30.50;29.50;;;;;;;;5055058;28;9650;-78
2023/05/22 09:53:26;;;;;;;;;33.00;30.75;;;;;;;;5047870;28;8872;-80
2023/05/22 09:55:54;;;;;;;;;27.25;25.75;;;;;;;;5048164;28;8856;-79
2023/05/22 09:58:25;;;;;;;;;32.50;29.75;;;;;;;;5050129;28;8871;-81
2023/05/22 10:00:55;;;;;;;;;34.75;32.00;;;;;;;;5050973;28;8828;-80
2023/05/22 10:03:23;;;;;;;;;39.00;32.50;;;;;;;;5053046;28;8855;-80
2023/05/22 10:05:53;;;;;;;;;28.75;28.50;;;;;;;;5054335;28;8851;-81
2023/05/22 10:08:23;;;;;;;;;36.50;31.00;;;;;;;;5052529;28;8847;-80
2023/05/22 10:10:52;;;;;;;;;32.00;30.00;;;;;;;;5052036;28;8861;-82
2023/05/22 10:13:20;;;;;;;;;35.00;29.50;;;;;;;;5051797;28;8871;-82
2023/05/22 10:15:49;;;;;;;;;30.25;29.50;;;;;;;;5065487;28;8874;-81
2023/05/22 10:18:17;;;;;;;;;32.75;29.75;;;;;;;;5065141;28;8855;-78
2023/05/22 10:20:45;;;;;;;;;29.50;29.25;;;;;;;;5070431;28;8982;-79
2023/05/22 10:23:12;;;;;;;;;37.50;32.25;;;;;;;;5044653;28;8978;-82
2023/05/22 10:25:41;;;;;;;;;31.75;29.75;;;;;;;;5063435;28;8847;-78
2023/05/22 10:28:08;;;;;;;;;38.00;33.25;;;;;;;;5065860;28;8843;-80
2023/05/22 10:30:44;;;;;;;;;30.00;29.00;;;;;;;;5051165;28;8793;-80
2023/05/22 10:33:15;;;;;;;;;33.25;29.75;;;;;;;;5058540;28;8873;-79
2023/05/22 10:35:46;;;;;;;;;35.75;31.25;;;;;;;;5061727;28;8853;-81
2023/05/22 10:38:26;;;;;;;;;34.50;32.50;;;;;;;;5057136;28;8850;-81
2023/05/22 10:40:53;;;;;;;;;38.00;30.25;;;;;;;;5052069;28;8867;-80
2023/05/22 10:43:22;;;;;;;;;30.00;29.50;;;;;;;;5055347;28;8865;-81
2023/05/22 10:45:49;;;;;;;;;30.00;28.75;;;;;;;;5063942;28;8942;-82
2023/05/22 10:48:22;;;;;;;;;34.25;29.75;;;;;;;;5053491;28;8882;-80
2023/05/22 10:50:52;;;;;;;;;32.50;31.25;;;;;;;;5064960;28;8901;-80
2023/05/22 10:53:22;;;;;;;;;31.50;30.50;;;;;;;;5063398;28;8862;-82
2023/05/22 10:55:50;;;;;;;;;39.75;31.75;;;;;;;;5037153;28;8895;-81
2023/05/22 10:58:17;;;;;;;;;33.75;29.75;;;;;;;;5059208;28;8843;-83
2023/05/22 11:00:44;;;;;;;;;36.75;32.50;;;;;;;;5057830;28;8882;-84
2023/05/22 11:03:14;;;;;;;;;32.75;30.25;;;;;;;;5055019;28;8949;-81
2023/05/22 11:05:42;;;;;;;;;34.75;30.25;;;;;;;;5058325;28;8863;-80
2023/05/22 11:08:28;;;;;;;;;35.00;31.00;;;;;;;;5061560;28;8956;-80
2023/05/22 11:10:57;;;;;;;;;33.00;31.50;;;;;;;;5064063;28;8867;-78
2023/05/22 11:13:26;;;;;;;;;31.60;30.60;;;;;;;;5059862;28;8847;-79
2023/05/22 11:15:56;;;;;;;;;34.25;32.00;;;;;;;;5046912;28;8842;-80
2023/05/22 11:18:24;;;;;;;;;33.00;30.25;;;;;;;;5050278;28;8849;-79
2023/05/22 11:20:54;;;;;;;;;30.40;30.00;;;;;;;;5056802;28;8924;-79
2023/05/22 11:23:22;;;;;;;;;27.60;25.60;;;;;;;;5058062;28;8928;-79
2023/05/22 11:25:49;;;;;;;;;31.00;29.80;;;;;;;;5061205;28;8861;-79
2023/05/22 11:28:17;;;;;;;;;35.50;32.75;;;;;;;;5066101;28;8867;-79
2023/05/22 11:30:44;;;;;;;;;37.00;32.25;;;;;;;;5050623;28;8793;-79
2023/05/22 11:33:12;;;;;;;;;33.00;31.50;;;;;;;;5069823;28;8859;-79
2023/05/22 11:35:40;;;;;;;;;39.25;33.00;;;;;;;;5067579;28;9644;-79
2023/05/22 11:38:10;;;;;;;;;34.60;32.00;;;;;;;;5069942;28;8863;-79
2023/05/22 11:40:37;;;;;;;;;35.25;32.75;;;;;;;;5065749;28;8893;-80
2023/05/22 11:43:04;;;;;;;;;33.00;30.80;;;;;;;;5060760;28;8859;-79
2023/05/22 11:45:31;;;;;;;;;38.80;32.80;;;;;;;;5065294;28;8842;-79
2023/05/22 11:47:59;;;;;;;;;35.00;32.80;;;;;;;;5060514;28;8885;-79
2023/05/22 11:50:26;;;;;;;;;40.00;32.75;;;;;;;;5055568;28;8839;-78
2023/05/22 11:52:55;;;;;;;;;41.25;35.00;;;;;;;;5059008;28;8854;-76
2023/05/22 11:55:24;;;;;;;;;38.75;35.00;;;;;;;;5054339;28;8839;-77
2023/05/22 11:57:51;;;;;;;;;36.40;32.20;;;;;;;;5069567;28;8875;-78
2023/05/22 12:00:19;;;;;;;;;36.75;32.00;;;;;;;;5050069;28;8887;-77
2023/05/22 12:02:47;;;;;;;;;27.75;27.00;;;;;;;;5049995;28;9676;-78
2023/05/22 12:05:15;;;;;;;;;35.00;32.00;;;;;;;;5067396;28;8847;-77
2023/05/22 12:07:42;;;;;;;;;37.25;34.25;;;;;;;;5068705;28;8839;-79
2023/05/22 12:10:11;;;;;;;;;35.75;32.50;;;;;;;;5067661;28;8851;-77
2023/05/22 12:12:40;;;;;;;;;37.25;32.75;;;;;;;;5068643;28;8877;-77
2023/05/22 12:15:08;;;;;;;;;34.25;32.00;;;;;;;;5068501;28;8863;-77
2023/05/22 12:17:37;;;;;;;;;32.25;28.00;;;;;;;;5066651;28;8997;-78
2023/05/22 12:20:05;;;;;;;;;36.00;31.50;;;;;;;;5068712;28;8855;-79
2023/05/22 12:22:32;;;;;;;;;38.25;33.00;;;;;;;;5053906;28;9687;-79
2023/05/22 12:24:59;;;;;;;;;34.75;31.00;;;;;;;;5057646;28;9497;-80
2023/05/22 12:27:30;;;;;;;;;31.50;30.75;;;;;;;;5064663;28;8870;-79
2023/05/22 12:29:59;;;;;;;;;34.00;30.75;;;;;;;;5049616;28;8845;-77
2023/05/22 12:32:28;;;;;;;;;30.20;29.20;;;;;;;;5046479;28;8791;-77
2023/05/22 12:34:59;;;;;;;;;35.50;31.00;;;;;;;;5044959;28;8945;-78
2023/05/22 12:37:26;;;;;;;;;34.00;30.60;;;;;;;;5050873;28;8864;-77
2023/05/22 12:39:55;;;;;;;;;32.60;30.40;;;;;;;;5059030;28;8878;-77
2023/05/22 12:42:22;;;;;;;;;31.20;29.80;;;;;;;;5061069;28;8954;-78
2023/05/22 12:44:52;;;;;;;;;28.20;26.80;;;;;;;;5060468;28;8858;-78
2023/05/22 12:47:21;;;;;;;;;27.20;27.20;;;;;;;;5062090;28;8850;-78
2023/05/22 12:49:48;;;;;;;;;26.80;25.60;;;;;;;;5059948;28;8835;-78
2023/05/22 12:52:16;;;;;;;;;30.00;29.80;;;;;;;;5045954;28;8867;-77
2023/05/22 12:54:43;;;;;;;;;36.80;32.60;;;;;;;;5048713;28;8857;-78
2023/05/22 12:57:10;;;;;;;;;31.00;29.80;;;;;;;;5051943;28;8941;-79
2023/05/22 12:59:38;;;;;;;;;29.60;27.40;;;;;;;;5045665;28;8857;-79
2023/05/22 13:02:05;;;;;;;;;36.20;32.80;;;;;;;;5055118;28;8793;-78
2023/05/22 13:04:34;;;;;;;;;30.80;28.80;;;;;;;;5042906;28;8837;-79
2023/05/22 13:07:01;;;;;;;;;35.80;30.20;;;;;;;;5050536;28;8838;-78
2023/05/22 13:09:28;;;;;;;;;31.60;29.40;;;;;;;;5049267;28;8884;-78
2023/05/22 13:11:55;;;;;;;;;35.20;31.80;;;;;;;;5049132;28;8868;-79
2023/05/22 13:14:23;;;;;;;;;26.60;25.60;;;;;;;;5048129;28;8971;-78
2023/05/22 13:16:50;;;;;;;;;32.60;28.80;;;;;;;;5051451;28;8846;-79
2023/05/22 13:19:17;;;;;;;;;38.80;33.60;;;;;;;;5048758;28;8855;-77
2023/05/22 13:21:45;;;;;;;;;37.00;32.00;;;;;;;;5052990;28;9447;-78
2023/05/22 13:24:13;;;;;;;;;32.40;30.60;;;;;;;;5050043;28;8853;-79
2023/05/22 13:26:40;;;;;;;;;33.60;31.60;;;;;;;;5048925;28;8865;-78
2023/05/22 13:29:07;;;;;;;;;33.20;29.40;;;;;;;;5040855;28;8844;-79
2023/05/22 13:31:36;;;;;;;;;31.00;27.60;;;;;;;;5052527;28;8807;-79
2023/05/22 13:34:04;;;;;;;;;38.25;33.00;;;;;;;;5052566;28;8849;-79
2023/05/22 13:36:31;;;;;;;;;24.40;23.40;;;;;;;;5058766;28;8992;-79
2023/05/22 13:38:59;;;;;;;;;34.50;30.00;;;;;;;;5059361;28;8991;-74
2023/05/22 13:41:27;;;;;;;;;39.75;32.50;;;;;;;;5046527;28;8854;-77
2023/05/22 13:43:54;;;;;;;;;26.80;25.80;;;;;;;;5044188;28;8829;-77
2023/05/22 13:46:22;;;;;;;;;31.50;29.50;;;;;;;;5064514;28;8976;-77
2023/05/22 13:48:49;;;;;;;;;29.25;27.00;;;;;;;;5059612;28;8854;-79
2023/05/22 13:51:16;;;;;;;;;36.50;32.50;;;;;;;;5053466;28;8908;-78
2023/05/22 13:53:43;;;;;;;;;31.00;30.25;;;;;;;;5041084;28;8864;-77
2023/05/22 13:56:12;;;;;;;;;32.00;29.75;;;;;;;;5040682;28;8877;-83
2023/05/22 13:58:39;;;;;;;;;31.00;29.75;;;;;;;;5047669;28;8865;-77
2023/05/22 14:01:06;;;;;;;;;33.50;30.25;;;;;;;;5047309;28;8789;-80
2023/05/22 14:03:34;;;;;;;;;35.60;28.80;;;;;;;;5050281;28;8847;-77
2023/05/22 14:06:01;;;;;;;;;34.20;29.80;;;;;;;;5055250;28;8869;-78
2023/05/22 14:08:28;;;;;;;;;29.80;28.80;;;;;;;;5045497;28;8863;-82
2023/05/22 14:10:57;;;;;;;;;35.00;29.00;;;;;;;;5053103;28;8845;-79
2023/05/22 14:13:26;;;;;;;;;31.80;29.80;;;;;;;;5043442;28;8883;-82
2023/05/22 14:15:53;;;;;;;;;24.60;24.40;;;;;;;;5048450;28;8846;-83
2023/05/22 14:18:20;;;;;;;;;26.00;26.00;;;;;;;;5037180;28;9016;-81
2023/05/22 14:20:48;;;;;;;;;30.80;27.80;;;;;;;;5047547;28;8943;-86
2023/05/22 14:23:15;;;;;;;;;28.40;27.20;;;;;;;;5048150;28;8849;-79
2023/05/22 14:25:43;;;;;;;;;35.80;32.60;;;;;;;;5043945;28;8867;-81
2023/05/22 14:28:11;;;;;;;;;27.20;25.40;;;;;;;;5047612;28;8866;-80
2023/05/22 14:30:40;;;;;;;;;25.00;24.80;;;;;;;;5034134;28;8838;-80
2023/05/22 14:33:07;;;;;;;;;21.20;21.20;;;;;;;;5046921;28;8984;-82
2023/05/22 14:35:34;;;;;;;;;22.20;20.60;;;;;;;;5050287;28;8865;-83
2023/05/22 14:38:01;;;;;;;;;23.40;22.00;;;;;;;;5035883;28;8970;-81